sensor_id;sensor_type;location;lat;lon;timestamp;temperature;humidity
26278;DHT22;14000;52.056;8.510;2023-09-07T00:01:29;17.20;99.90
26278;DHT22;14000;52.056;8.510;2023-09-07T00:03:55;17.10;99.90
26278;DHT22;14000;52.056;8.510;2023-09-07T00:06:21;17.10;99.90
26278;DHT22;14000;52.056;8.510;2023-09-07T00:08:46;17.10;99.90
26278;DHT22;14000;52.056;8.510;2023-09-07T00:11:12;17.00;99.90
26278;DHT22;14000;52.056;8.510;2023-09-07T00:13:38;17.00;99.90
26278;DHT22;14000;52.056;8.510;2023-09-07T00:16:04;17.00;99.90
26278;DHT22;14000;52.056;8.510;2023-09-07T00:18:30;17.00;99.90
26278;DHT22;14000;52.056;8.510;2023-09-07T00:20:56;17.00;99.90
26278;DHT22;14000;52.056;8.510;2023-09-07T00:23:21;17.00;99.90
26278;DHT22;14000;52.056;8.510;2023-09-07T00:25:47;16.90;99.90
26278;DHT22;14000;52.056;8.510;2023-09-07T00:28:13;16.80;99.90
26278;DHT22;14000;52.056;8.510;2023-09-07T00:30:39;16.80;99.90
26278;DHT22;14000;52.056;8.510;2023-09-07T00:33:05;16.70;99.90
26278;DHT22;14000;52.056;8.510;2023-09-07T00:35:31;16.70;99.90
26278;DHT22;14000;52.056;8.510;2023-09-07T00:37:57;16.70;99.90
26278;DHT22;14000;52.056;8.510;2023-09-07T00:40:22;16.70;99.90
26278;DHT22;14000;52.056;8.510;2023-09-07T00:42:48;16.60;99.90
26278;DHT22;14000;52.056;8.510;2023-09-07T00:45:15;16.60;99.90
26278;DHT22;14000;52.056;8.510;2023-09-07T00:47:40;16.60;99.90
26278;DHT22;14000;52.056;8.510;2023-09-07T00:50:06;16.60;99.90
26278;DHT22;14000;52.056;8.510;2023-09-07T00:52:33;16.50;99.90
26278;DHT22;14000;52.056;8.510;2023-09-07T00:55:01;16.50;99.90
26278;DHT22;14000;52.056;8.510;2023-09-07T00:57:27;16.40;99.90
26278;DHT22;14000;52.056;8.510;2023-09-07T00:59:54;16.40;99.90
26278;DHT22;14000;52.056;8.510;2023-09-07T01:02:19;16.40;99.90
26278;DHT22;14000;52.056;8.510;2023-09-07T01:04:45;16.30;99.90
26278;DHT22;14000;52.056;8.510;2023-09-07T01:07:44;16.30;99.90
26278;DHT22;14000;52.056;8.510;2023-09-07T01:10:12;16.30;99.90
26278;DHT22;14000;52.056;8.510;2023-09-07T01:12:39;16.30;99.90
26278;DHT22;14000;52.056;8.510;2023-09-07T01:15:06;16.20;99.90
26278;DHT22;14000;52.056;8.510;2023-09-07T01:17:33;16.20;99.90
26278;DHT22;14000;52.056;8.510;2023-09-07T01:20:03;16.10;99.90
26278;DHT22;14000;52.056;8.510;2023-09-07T01:22:31;16.10;99.90
26278;DHT22;14000;52.056;8.510;2023-09-07T01:24:57;16.10;99.90
26278;DHT22;14000;52.056;8.510;2023-09-07T01:27:24;16.00;99.90
26278;DHT22;14000;52.056;8.510;2023-09-07T01:29:49;16.00;99.90
26278;DHT22;14000;52.056;8.510;2023-09-07T01:32:16;16.00;99.90
26278;DHT22;14000;52.056;8.510;2023-09-07T01:34:42;15.90;99.90
26278;DHT22;14000;52.056;8.510;2023-09-07T01:37:07;15.90;99.90
26278;DHT22;14000;52.056;8.510;2023-09-07T01:39:33;15.90;99.90
26278;DHT22;14000;52.056;8.510;2023-09-07T01:41:58;15.90;99.90
26278;DHT22;14000;52.056;8.510;2023-09-07T01:44:24;15.90;99.90
26278;DHT22;14000;52.056;8.510;2023-09-07T01:46:51;15.90;99.90
26278;DHT22;14000;52.056;8.510;2023-09-07T01:49:17;15.90;99.90
26278;DHT22;14000;52.056;8.510;2023-09-07T01:51:42;15.80;99.90
26278;DHT22;14000;52.056;8.510;2023-09-07T01:54:08;15.90;99.90
26278;DHT22;14000;52.056;8.510;2023-09-07T01:56:35;15.80;99.90
26278;DHT22;14000;52.056;8.510;2023-09-07T01:59:00;15.80;99.90
26278;DHT22;14000;52.056;8.510;2023-09-07T02:01:29;15.80;99.90
26278;DHT22;14000;52.056;8.510;2023-09-07T02:03:55;15.70;99.90
26278;DHT22;14000;52.056;8.510;2023-09-07T02:06:21;15.70;99.90
26278;DHT22;14000;52.056;8.510;2023-09-07T02:08:46;15.70;99.90
26278;DHT22;14000;52.056;8.510;2023-09-07T02:11:12;15.70;99.90
26278;DHT22;14000;52.056;8.510;2023-09-07T02:13:41;15.60;99.90
26278;DHT22;14000;52.056;8.510;2023-09-07T02:16:06;15.60;99.90
26278;DHT22;14000;52.056;8.510;2023-09-07T02:18:32;15.50;99.90
26278;DHT22;14000;52.056;8.510;2023-09-07T02:21:05;15.60;99.90
26278;DHT22;14000;52.056;8.510;2023-09-07T02:23:31;15.60;99.90
26278;DHT22;14000;52.056;8.510;2023-09-07T02:25:57;15.50;99.90
26278;DHT22;14000;52.056;8.510;2023-09-07T02:28:23;15.40;99.90
26278;DHT22;14000;52.056;8.510;2023-09-07T02:30:49;15.40;99.90
26278;DHT22;14000;52.056;8.510;2023-09-07T02:33:15;15.40;99.90
26278;DHT22;14000;52.056;8.510;2023-09-07T02:35:40;15.40;99.90
26278;DHT22;14000;52.056;8.510;2023-09-07T02:38:06;15.30;99.90
26278;DHT22;14000;52.056;8.510;2023-09-07T02:40:31;15.40;99.90
26278;DHT22;14000;52.056;8.510;2023-09-07T02:42:57;15.30;99.90
26278;DHT22;14000;52.056;8.510;2023-09-07T02:45:22;15.30;99.90
26278;DHT22;14000;52.056;8.510;2023-09-07T02:47:48;15.30;99.90
26278;DHT22;14000;52.056;8.510;2023-09-07T02:50:16;15.30;99.90
26278;DHT22;14000;52.056;8.510;2023-09-07T02:52:43;15.30;99.90
26278;DHT22;14000;52.056;8.510;2023-09-07T02:55:09;15.20;99.90
26278;DHT22;14000;52.056;8.510;2023-09-07T02:57:35;15.20;99.90
26278;DHT22;14000;52.056;8.510;2023-09-07T03:00:00;15.10;99.90
26278;DHT22;14000;52.056;8.510;2023-09-07T03:02:27;15.10;99.90
26278;DHT22;14000;52.056;8.510;2023-09-07T03:04:54;15.10;99.90
26278;DHT22;14000;52.056;8.510;2023-09-07T03:07:20;15.10;99.90
26278;DHT22;14000;52.056;8.510;2023-09-07T03:09:46;15.10;99.90
26278;DHT22;14000;52.056;8.510;2023-09-07T03:12:11;15.00;99.90
26278;DHT22;14000;52.056;8.510;2023-09-07T03:14:37;15.00;99.90
26278;DHT22;14000;52.056;8.510;2023-09-07T03:17:02;15.00;99.90
26278;DHT22;14000;52.056;8.510;2023-09-07T03:19:29;15.00;99.90
26278;DHT22;14000;52.056;8.510;2023-09-07T03:21:54;15.00;99.90
26278;DHT22;14000;52.056;8.510;2023-09-07T03:24:20;14.90;99.90
26278;DHT22;14000;52.056;8.510;2023-09-07T03:26:46;14.90;99.90
26278;DHT22;14000;52.056;8.510;2023-09-07T03:29:11;14.80;99.90
26278;DHT22;14000;52.056;8.510;2023-09-07T03:31:37;14.80;99.90
26278;DHT22;14000;52.056;8.510;2023-09-07T03:34:03;14.80;99.90
26278;DHT22;14000;52.056;8.510;2023-09-07T03:36:28;14.70;99.90
26278;DHT22;14000;52.056;8.510;2023-09-07T03:38:54;14.70;99.90
26278;DHT22;14000;52.056;8.510;2023-09-07T03:41:20;14.70;99.90
26278;DHT22;14000;52.056;8.510;2023-09-07T03:43:46;14.70;99.90
26278;DHT22;14000;52.056;8.510;2023-09-07T03:46:12;14.70;99.90
26278;DHT22;14000;52.056;8.510;2023-09-07T03:48:38;14.70;99.90
26278;DHT22;14000;52.056;8.510;2023-09-07T03:51:06;14.70;99.90
26278;DHT22;14000;52.056;8.510;2023-09-07T03:53:32;14.70;99.90
26278;DHT22;14000;52.056;8.510;2023-09-07T03:55:58;14.60;99.90
26278;DHT22;14000;52.056;8.510;2023-09-07T03:58:23;14.60;99.90
26278;DHT22;14000;52.056;8.510;2023-09-07T04:00:49;14.50;99.90
26278;DHT22;14000;52.056;8.510;2023-09-07T04:03:15;14.50;99.90
26278;DHT22;14000;52.056;8.510;2023-09-07T04:05:40;14.50;99.90
26278;DHT22;14000;52.056;8.510;2023-09-07T04:08:06;14.40;99.90
26278;DHT22;14000;52.056;8.510;2023-09-07T04:10:32;14.40;99.90
26278;DHT22;14000;52.056;8.510;2023-09-07T04:12:58;14.40;99.90
26278;DHT22;14000;52.056;8.510;2023-09-07T04:15:24;14.40;99.90
26278;DHT22;14000;52.056;8.510;2023-09-07T04:17:51;14.40;99.90
26278;DHT22;14000;52.056;8.510;2023-09-07T04:20:16;14.40;99.90
26278;DHT22;14000;52.056;8.510;2023-09-07T04:22:42;14.40;99.90
26278;DHT22;14000;52.056;8.510;2023-09-07T04:25:08;14.40;99.90
26278;DHT22;14000;52.056;8.510;2023-09-07T04:27:33;14.40;99.90
26278;DHT22;14000;52.056;8.510;2023-09-07T04:29:59;14.30;99.90
26278;DHT22;14000;52.056;8.510;2023-09-07T04:32:25;14.20;99.90
26278;DHT22;14000;52.056;8.510;2023-09-07T04:34:55;14.10;99.90
26278;DHT22;14000;52.056;8.510;2023-09-07T04:37:22;14.10;99.90
26278;DHT22;14000;52.056;8.510;2023-09-07T04:39:51;14.10;99.90
26278;DHT22;14000;52.056;8.510;2023-09-07T04:42:18;14.10;99.90
26278;DHT22;14000;52.056;8.510;2023-09-07T04:44:43;14.10;99.90
26278;DHT22;14000;52.056;8.510;2023-09-07T04:47:09;14.10;99.90
26278;DHT22;14000;52.056;8.510;2023-09-07T04:49:34;14.20;99.90
26278;DHT22;14000;52.056;8.510;2023-09-07T04:52:00;14.20;99.90
26278;DHT22;14000;52.056;8.510;2023-09-07T04:54:26;14.10;99.90
26278;DHT22;14000;52.056;8.510;2023-09-07T04:56:51;14.10;99.90
26278;DHT22;14000;52.056;8.510;2023-09-07T04:59:17;14.10;99.90
26278;DHT22;14000;52.056;8.510;2023-09-07T05:01:43;14.10;99.90
26278;DHT22;14000;52.056;8.510;2023-09-07T05:04:08;14.10;99.90
26278;DHT22;14000;52.056;8.510;2023-09-07T05:06:34;14.10;99.90
26278;DHT22;14000;52.056;8.510;2023-09-07T05:09:03;14.10;99.90
26278;DHT22;14000;52.056;8.510;2023-09-07T05:11:29;14.10;99.90
26278;DHT22;14000;52.056;8.510;2023-09-07T05:13:54;14.10;99.90
26278;DHT22;14000;52.056;8.510;2023-09-07T05:16:20;14.10;99.90
26278;DHT22;14000;52.056;8.510;2023-09-07T05:18:45;14.10;99.90
26278;DHT22;14000;52.056;8.510;2023-09-07T05:21:15;14.10;99.90
26278;DHT22;14000;52.056;8.510;2023-09-07T05:23:41;14.10;99.90
26278;DHT22;14000;52.056;8.510;2023-09-07T05:26:06;14.10;99.90
26278;DHT22;14000;52.056;8.510;2023-09-07T05:28:32;14.10;99.90
26278;DHT22;14000;52.056;8.510;2023-09-07T05:30:58;14.10;99.90
26278;DHT22;14000;52.056;8.510;2023-09-07T05:33:23;14.10;99.90
26278;DHT22;14000;52.056;8.510;2023-09-07T05:35:49;14.20;99.90
26278;DHT22;14000;52.056;8.510;2023-09-07T05:38:14;14.20;99.90
26278;DHT22;14000;52.056;8.510;2023-09-07T05:40:42;14.20;99.90
26278;DHT22;14000;52.056;8.510;2023-09-07T05:43:08;14.30;99.90
26278;DHT22;14000;52.056;8.510;2023-09-07T05:45:36;14.30;99.90
26278;DHT22;14000;52.056;8.510;2023-09-07T05:48:03;14.30;99.90
26278;DHT22;14000;52.056;8.510;2023-09-07T05:50:29;14.40;99.90
26278;DHT22;14000;52.056;8.510;2023-09-07T05:52:54;14.40;99.90
26278;DHT22;14000;52.056;8.510;2023-09-07T05:55:20;14.40;99.90
26278;DHT22;14000;52.056;8.510;2023-09-07T05:57:46;14.50;99.90
26278;DHT22;14000;52.056;8.510;2023-09-07T06:00:12;14.50;99.90
26278;DHT22;14000;52.056;8.510;2023-09-07T06:02:38;14.60;99.90
26278;DHT22;14000;52.056;8.510;2023-09-07T06:05:04;14.60;99.90
26278;DHT22;14000;52.056;8.510;2023-09-07T06:07:30;14.70;99.90
26278;DHT22;14000;52.056;8.510;2023-09-07T06:09:56;14.70;99.90
26278;DHT22;14000;52.056;8.510;2023-09-07T06:12:24;14.80;99.90
26278;DHT22;14000;52.056;8.510;2023-09-07T06:14:49;14.90;99.90
26278;DHT22;14000;52.056;8.510;2023-09-07T06:17:15;15.00;99.90
26278;DHT22;14000;52.056;8.510;2023-09-07T06:19:41;15.00;99.90
26278;DHT22;14000;52.056;8.510;2023-09-07T06:22:06;15.10;99.90
26278;DHT22;14000;52.056;8.510;2023-09-07T06:24:32;15.20;99.90
26278;DHT22;14000;52.056;8.510;2023-09-07T06:26:57;15.20;99.90
26278;DHT22;14000;52.056;8.510;2023-09-07T06:29:23;15.30;99.90
26278;DHT22;14000;52.056;8.510;2023-09-07T06:31:48;15.40;99.90
26278;DHT22;14000;52.056;8.510;2023-09-07T06:34:15;15.50;99.90
26278;DHT22;14000;52.056;8.510;2023-09-07T06:36:41;15.60;99.90
26278;DHT22;14000;52.056;8.510;2023-09-07T06:39:06;15.70;99.90
26278;DHT22;14000;52.056;8.510;2023-09-07T06:41:32;15.80;99.90
26278;DHT22;14000;52.056;8.510;2023-09-07T06:43:58;15.90;99.90
26278;DHT22;14000;52.056;8.510;2023-09-07T06:46:23;16.00;99.90
26278;DHT22;14000;52.056;8.510;2023-09-07T06:48:49;16.10;99.90
26278;DHT22;14000;52.056;8.510;2023-09-07T06:51:15;16.20;99.90
26278;DHT22;14000;52.056;8.510;2023-09-07T06:53:40;16.30;99.90
26278;DHT22;14000;52.056;8.510;2023-09-07T06:56:06;16.40;99.90
26278;DHT22;14000;52.056;8.510;2023-09-07T06:58:32;16.50;99.90
26278;DHT22;14000;52.056;8.510;2023-09-07T07:01:00;16.60;99.90
26278;DHT22;14000;52.056;8.510;2023-09-07T07:03:28;16.70;99.90
26278;DHT22;14000;52.056;8.510;2023-09-07T07:05:54;16.80;99.90
26278;DHT22;14000;52.056;8.510;2023-09-07T07:08:19;17.00;99.90
26278;DHT22;14000;52.056;8.510;2023-09-07T07:10:45;17.00;99.90
26278;DHT22;14000;52.056;8.510;2023-09-07T07:13:11;17.20;99.90
26278;DHT22;14000;52.056;8.510;2023-09-07T07:15:36;17.30;99.90
26278;DHT22;14000;52.056;8.510;2023-09-07T07:18:02;17.40;99.90
26278;DHT22;14000;52.056;8.510;2023-09-07T07:20:34;17.50;99.90
26278;DHT22;14000;52.056;8.510;2023-09-07T07:23:00;17.60;99.90
26278;DHT22;14000;52.056;8.510;2023-09-07T07:25:25;17.70;99.90
26278;DHT22;14000;52.056;8.510;2023-09-07T07:27:51;17.80;99.90
26278;DHT22;14000;52.056;8.510;2023-09-07T07:30:16;17.80;99.90
26278;DHT22;14000;52.056;8.510;2023-09-07T07:32:42;17.90;99.90
26278;DHT22;14000;52.056;8.510;2023-09-07T07:35:08;18.00;99.90
26278;DHT22;14000;52.056;8.510;2023-09-07T07:37:33;18.10;99.90
26278;DHT22;14000;52.056;8.510;2023-09-07T07:39:59;18.20;99.90
26278;DHT22;14000;52.056;8.510;2023-09-07T07:42:24;18.30;99.90
26278;DHT22;14000;52.056;8.510;2023-09-07T07:44:50;18.50;99.90
26278;DHT22;14000;52.056;8.510;2023-09-07T07:47:15;18.60;99.90
26278;DHT22;14000;52.056;8.510;2023-09-07T07:49:41;18.70;99.90
26278;DHT22;14000;52.056;8.510;2023-09-07T07:52:07;18.80;99.90
26278;DHT22;14000;52.056;8.510;2023-09-07T07:54:33;19.00;99.90
26278;DHT22;14000;52.056;8.510;2023-09-07T07:56:59;19.10;99.90
26278;DHT22;14000;52.056;8.510;2023-09-07T07:59:25;19.30;99.90
26278;DHT22;14000;52.056;8.510;2023-09-07T08:01:50;19.40;99.90
26278;DHT22;14000;52.056;8.510;2023-09-07T08:04:16;19.50;99.90
26278;DHT22;14000;52.056;8.510;2023-09-07T08:06:41;19.50;99.90
26278;DHT22;14000;52.056;8.510;2023-09-07T08:09:07;19.60;99.90
26278;DHT22;14000;52.056;8.510;2023-09-07T08:11:33;19.80;99.90
26278;DHT22;14000;52.056;8.510;2023-09-07T08:13:59;19.90;99.90
26278;DHT22;14000;52.056;8.510;2023-09-07T08:16:25;20.00;99.90
26278;DHT22;14000;52.056;8.510;2023-09-07T08:18:51;20.10;99.90
26278;DHT22;14000;52.056;8.510;2023-09-07T08:21:16;20.20;99.90
26278;DHT22;14000;52.056;8.510;2023-09-07T08:23:43;20.30;99.90
26278;DHT22;14000;52.056;8.510;2023-09-07T08:26:09;20.50;99.90
26278;DHT22;14000;52.056;8.510;2023-09-07T08:28:35;20.60;99.90
26278;DHT22;14000;52.056;8.510;2023-09-07T08:31:00;20.70;99.90
26278;DHT22;14000;52.056;8.510;2023-09-07T08:33:26;20.90;99.90
26278;DHT22;14000;52.056;8.510;2023-09-07T08:36:05;21.00;99.90
26278;DHT22;14000;52.056;8.510;2023-09-07T08:38:31;21.10;99.90
26278;DHT22;14000;52.056;8.510;2023-09-07T08:41:01;21.20;99.90
26278;DHT22;14000;52.056;8.510;2023-09-07T08:43:35;21.30;99.90
26278;DHT22;14000;52.056;8.510;2023-09-07T08:46:18;21.30;99.90
26278;DHT22;14000;52.056;8.510;2023-09-07T08:48:43;21.30;99.90
26278;DHT22;14000;52.056;8.510;2023-09-07T08:51:12;21.40;99.90
26278;DHT22;14000;52.056;8.510;2023-09-07T08:53:39;21.60;99.90
26278;DHT22;14000;52.056;8.510;2023-09-07T08:56:07;21.60;99.90
26278;DHT22;14000;52.056;8.510;2023-09-07T08:58:36;21.80;99.90
26278;DHT22;14000;52.056;8.510;2023-09-07T09:01:01;21.80;99.90
26278;DHT22;14000;52.056;8.510;2023-09-07T09:03:28;21.90;99.90
26278;DHT22;14000;52.056;8.510;2023-09-07T09:05:56;21.90;99.90
26278;DHT22;14000;52.056;8.510;2023-09-07T09:08:22;22.00;99.90
26278;DHT22;14000;52.056;8.510;2023-09-07T09:11:01;22.10;99.90
26278;DHT22;14000;52.056;8.510;2023-09-07T09:13:32;22.20;99.90
26278;DHT22;14000;52.056;8.510;2023-09-07T09:16:00;22.30;99.90
26278;DHT22;14000;52.056;8.510;2023-09-07T09:18:29;22.30;99.90
26278;DHT22;14000;52.056;8.510;2023-09-07T09:20:55;22.40;99.90
26278;DHT22;14000;52.056;8.510;2023-09-07T09:23:21;22.50;99.90
26278;DHT22;14000;52.056;8.510;2023-09-07T09:25:49;22.60;99.90
26278;DHT22;14000;52.056;8.510;2023-09-07T09:28:15;22.70;99.90
26278;DHT22;14000;52.056;8.510;2023-09-07T09:30:41;22.80;99.90
26278;DHT22;14000;52.056;8.510;2023-09-07T09:33:09;22.90;99.90
26278;DHT22;14000;52.056;8.510;2023-09-07T09:35:35;23.00;99.90
26278;DHT22;14000;52.056;8.510;2023-09-07T09:38:01;23.00;99.90
26278;DHT22;14000;52.056;8.510;2023-09-07T09:40:33;23.20;99.90
26278;DHT22;14000;52.056;8.510;2023-09-07T09:43:02;23.20;99.90
26278;DHT22;14000;52.056;8.510;2023-09-07T09:45:29;23.40;99.90
26278;DHT22;14000;52.056;8.510;2023-09-07T09:47:55;23.50;99.90
26278;DHT22;14000;52.056;8.510;2023-09-07T09:50:27;23.50;99.90
26278;DHT22;14000;52.056;8.510;2023-09-07T09:52:53;23.60;99.90
26278;DHT22;14000;52.056;8.510;2023-09-07T09:55:20;23.70;99.90
26278;DHT22;14000;52.056;8.510;2023-09-07T09:57:45;23.90;99.90
26278;DHT22;14000;52.056;8.510;2023-09-07T10:00:11;24.00;99.90
26278;DHT22;14000;52.056;8.510;2023-09-07T10:03:27;24.10;99.90
26278;DHT22;14000;52.056;8.510;2023-09-07T10:05:53;24.20;99.90
26278;DHT22;14000;52.056;8.510;2023-09-07T10:08:20;24.20;99.90
26278;DHT22;14000;52.056;8.510;2023-09-07T10:10:48;24.30;99.90
26278;DHT22;14000;52.056;8.510;2023-09-07T10:13:15;24.40;99.90
26278;DHT22;14000;52.056;8.510;2023-09-07T10:15:41;24.50;99.90
26278;DHT22;14000;52.056;8.510;2023-09-07T10:18:15;24.60;99.90
26278;DHT22;14000;52.056;8.510;2023-09-07T10:20:55;24.70;99.90
26278;DHT22;14000;52.056;8.510;2023-09-07T10:23:44;24.80;99.90
26278;DHT22;14000;52.056;8.510;2023-09-07T10:26:14;24.90;99.90
26278;DHT22;14000;52.056;8.510;2023-09-07T10:28:41;25.00;99.90
26278;DHT22;14000;52.056;8.510;2023-09-07T10:31:17;25.00;99.90
26278;DHT22;14000;52.056;8.510;2023-09-07T10:33:43;25.10;99.90
26278;DHT22;14000;52.056;8.510;2023-09-07T10:36:23;25.10;99.90
26278;DHT22;14000;52.056;8.510;2023-09-07T10:38:50;25.20;99.90
26278;DHT22;14000;52.056;8.510;2023-09-07T10:41:18;25.30;99.90
26278;DHT22;14000;52.056;8.510;2023-09-07T10:43:54;25.40;99.90
26278;DHT22;14000;52.056;8.510;2023-09-07T10:46:23;25.40;99.90
26278;DHT22;14000;52.056;8.510;2023-09-07T10:48:52;25.50;99.90
26278;DHT22;14000;52.056;8.510;2023-09-07T10:51:21;25.50;99.90
26278;DHT22;14000;52.056;8.510;2023-09-07T10:53:47;25.60;99.90
26278;DHT22;14000;52.056;8.510;2023-09-07T10:56:12;25.60;99.90
26278;DHT22;14000;52.056;8.510;2023-09-07T10:58:39;25.60;99.90
26278;DHT22;14000;52.056;8.510;2023-09-07T11:01:07;25.70;99.90
26278;DHT22;14000;52.056;8.510;2023-09-07T11:03:34;25.70;99.90
26278;DHT22;14000;52.056;8.510;2023-09-07T11:06:12;25.80;99.90
26278;DHT22;14000;52.056;8.510;2023-09-07T11:08:38;25.90;99.90
26278;DHT22;14000;52.056;8.510;2023-09-07T11:11:04;26.00;99.90
26278;DHT22;14000;52.056;8.510;2023-09-07T11:13:30;26.20;99.90
26278;DHT22;14000;52.056;8.510;2023-09-07T11:15:57;26.40;99.90
26278;DHT22;14000;52.056;8.510;2023-09-07T11:18:24;26.70;99.90
26278;DHT22;14000;52.056;8.510;2023-09-07T11:20:51;27.80;99.90
26278;DHT22;14000;52.056;8.510;2023-09-07T11:23:18;29.50;99.90
26278;DHT22;14000;52.056;8.510;2023-09-07T11:25:44;31.10;99.90
26278;DHT22;14000;52.056;8.510;2023-09-07T11:28:09;32.60;99.90
26278;DHT22;14000;52.056;8.510;2023-09-07T11:30:51;34.10;99.90
26278;DHT22;14000;52.056;8.510;2023-09-07T11:33:18;35.00;99.90
26278;DHT22;14000;52.056;8.510;2023-09-07T11:35:44;35.70;99.90
26278;DHT22;14000;52.056;8.510;2023-09-07T11:38:13;35.50;99.90
26278;DHT22;14000;52.056;8.510;2023-09-07T11:40:39;35.60;99.90
26278;DHT22;14000;52.056;8.510;2023-09-07T11:43:04;35.70;99.90
26278;DHT22;14000;52.056;8.510;2023-09-07T11:45:30;36.10;99.90
26278;DHT22;14000;52.056;8.510;2023-09-07T11:47:57;37.20;99.90
26278;DHT22;14000;52.056;8.510;2023-09-07T11:50:24;37.30;99.90
26278;DHT22;14000;52.056;8.510;2023-09-07T11:52:50;37.00;99.90
26278;DHT22;14000;52.056;8.510;2023-09-07T11:55:16;36.70;99.90
26278;DHT22;14000;52.056;8.510;2023-09-07T11:57:42;36.70;99.90
26278;DHT22;14000;52.056;8.510;2023-09-07T12:00:08;36.30;99.90
26278;DHT22;14000;52.056;8.510;2023-09-07T12:02:38;36.00;99.90
26278;DHT22;14000;52.056;8.510;2023-09-07T12:05:05;35.20;99.90
26278;DHT22;14000;52.056;8.510;2023-09-07T12:07:32;34.70;99.90
26278;DHT22;14000;52.056;8.510;2023-09-07T12:09:58;33.90;99.90
26278;DHT22;14000;52.056;8.510;2023-09-07T12:12:24;34.10;99.90
26278;DHT22;14000;52.056;8.510;2023-09-07T12:14:49;33.90;99.90
26278;DHT22;14000;52.056;8.510;2023-09-07T12:17:15;34.00;99.90
26278;DHT22;14000;52.056;8.510;2023-09-07T12:19:40;34.00;99.90
26278;DHT22;14000;52.056;8.510;2023-09-07T12:22:11;33.60;99.90
26278;DHT22;14000;52.056;8.510;2023-09-07T12:24:37;32.70;99.90
26278;DHT22;14000;52.056;8.510;2023-09-07T12:27:02;32.50;99.90
26278;DHT22;14000;52.056;8.510;2023-09-07T12:29:28;32.40;99.90
26278;DHT22;14000;52.056;8.510;2023-09-07T12:31:54;32.00;99.90
26278;DHT22;14000;52.056;8.510;2023-09-07T12:34:19;31.90;99.90
26278;DHT22;14000;52.056;8.510;2023-09-07T12:36:45;31.80;99.90
26278;DHT22;14000;52.056;8.510;2023-09-07T12:39:10;31.50;99.90
26278;DHT22;14000;52.056;8.510;2023-09-07T12:41:38;31.10;99.90
26278;DHT22;14000;52.056;8.510;2023-09-07T12:44:06;30.90;99.90
26278;DHT22;14000;52.056;8.510;2023-09-07T12:46:32;30.90;99.90
26278;DHT22;14000;52.056;8.510;2023-09-07T12:48:57;30.90;99.90
26278;DHT22;14000;52.056;8.510;2023-09-07T12:51:23;31.00;99.90
26278;DHT22;14000;52.056;8.510;2023-09-07T12:53:48;30.90;99.90
26278;DHT22;14000;52.056;8.510;2023-09-07T12:56:14;30.80;99.90
26278;DHT22;14000;52.056;8.510;2023-09-07T12:58:41;30.80;99.90
26278;DHT22;14000;52.056;8.510;2023-09-07T13:01:07;31.00;99.90
26278;DHT22;14000;52.056;8.510;2023-09-07T13:03:36;31.10;99.90
26278;DHT22;14000;52.056;8.510;2023-09-07T13:06:03;31.30;99.90
26278;DHT22;14000;52.056;8.510;2023-09-07T13:08:29;31.30;99.90
26278;DHT22;14000;52.056;8.510;2023-09-07T13:10:55;31.50;99.90
26278;DHT22;14000;52.056;8.510;2023-09-07T13:13:22;31.40;99.90
26278;DHT22;14000;52.056;8.510;2023-09-07T13:15:50;31.40;99.90
26278;DHT22;14000;52.056;8.510;2023-09-07T13:18:15;31.40;99.90
26278;DHT22;14000;52.056;8.510;2023-09-07T13:20:41;31.40;99.90
26278;DHT22;14000;52.056;8.510;2023-09-07T13:23:07;31.40;99.90
26278;DHT22;14000;52.056;8.510;2023-09-07T13:25:33;31.60;99.90
26278;DHT22;14000;52.056;8.510;2023-09-07T13:27:58;31.60;99.90
26278;DHT22;14000;52.056;8.510;2023-09-07T13:30:24;31.50;99.90
26278;DHT22;14000;52.056;8.510;2023-09-07T13:32:50;31.50;99.90
26278;DHT22;14000;52.056;8.510;2023-09-07T13:35:16;31.50;99.90
26278;DHT22;14000;52.056;8.510;2023-09-07T13:37:42;31.70;99.90
26278;DHT22;14000;52.056;8.510;2023-09-07T13:40:08;31.70;99.90
26278;DHT22;14000;52.056;8.510;2023-09-07T13:42:34;32.00;99.90
26278;DHT22;14000;52.056;8.510;2023-09-07T13:45:00;32.10;99.90
26278;DHT22;14000;52.056;8.510;2023-09-07T13:47:25;32.10;99.90
26278;DHT22;14000;52.056;8.510;2023-09-07T13:49:51;32.00;99.90
26278;DHT22;14000;52.056;8.510;2023-09-07T13:52:17;32.10;99.90
26278;DHT22;14000;52.056;8.510;2023-09-07T13:54:42;32.00;99.90
26278;DHT22;14000;52.056;8.510;2023-09-07T13:57:08;31.90;99.90
26278;DHT22;14000;52.056;8.510;2023-09-07T13:59:34;31.90;99.90
26278;DHT22;14000;52.056;8.510;2023-09-07T14:02:00;31.70;99.90
26278;DHT22;14000;52.056;8.510;2023-09-07T14:04:26;31.80;99.90
26278;DHT22;14000;52.056;8.510;2023-09-07T14:06:52;32.10;99.90
26278;DHT22;14000;52.056;8.510;2023-09-07T14:09:18;32.30;99.90
26278;DHT22;14000;52.056;8.510;2023-09-07T14:11:44;32.80;99.90
26278;DHT22;14000;52.056;8.510;2023-09-07T14:14:10;33.30;99.90
26278;DHT22;14000;52.056;8.510;2023-09-07T14:16:35;33.60;99.90
26278;DHT22;14000;52.056;8.510;2023-09-07T14:19:01;34.20;99.90
26278;DHT22;14000;52.056;8.510;2023-09-07T14:21:27;34.60;99.90
26278;DHT22;14000;52.056;8.510;2023-09-07T14:23:52;34.80;99.90
26278;DHT22;14000;52.056;8.510;2023-09-07T14:26:18;34.90;99.90
26278;DHT22;14000;52.056;8.510;2023-09-07T14:28:44;35.10;99.90
26278;DHT22;14000;52.056;8.510;2023-09-07T14:31:09;35.30;99.90
26278;DHT22;14000;52.056;8.510;2023-09-07T14:33:35;35.20;99.90
26278;DHT22;14000;52.056;8.510;2023-09-07T14:36:07;34.80;99.90
26278;DHT22;14000;52.056;8.510;2023-09-07T14:38:32;34.60;99.90
26278;DHT22;14000;52.056;8.510;2023-09-07T14:41:05;34.50;99.90
26278;DHT22;14000;52.056;8.510;2023-09-07T14:43:30;34.50;99.90
26278;DHT22;14000;52.056;8.510;2023-09-07T14:45:56;34.60;99.90
26278;DHT22;14000;52.056;8.510;2023-09-07T14:48:22;34.30;99.90
26278;DHT22;14000;52.056;8.510;2023-09-07T14:50:48;33.90;99.90
26278;DHT22;14000;52.056;8.510;2023-09-07T14:53:13;33.40;99.90
26278;DHT22;14000;52.056;8.510;2023-09-07T14:55:39;32.60;99.90
26278;DHT22;14000;52.056;8.510;2023-09-07T14:58:04;32.00;99.90
26278;DHT22;14000;52.056;8.510;2023-09-07T15:00:32;31.30;99.90
26278;DHT22;14000;52.056;8.510;2023-09-07T15:02:59;30.80;99.90
26278;DHT22;14000;52.056;8.510;2023-09-07T15:05:24;30.40;99.90
26278;DHT22;14000;52.056;8.510;2023-09-07T15:07:50;30.10;99.90
26278;DHT22;14000;52.056;8.510;2023-09-07T15:10:15;29.90;99.90
26278;DHT22;14000;52.056;8.510;2023-09-07T15:12:41;29.70;99.90
26278;DHT22;14000;52.056;8.510;2023-09-07T15:15:07;29.50;99.90
26278;DHT22;14000;52.056;8.510;2023-09-07T15:17:38;29.40;99.90
26278;DHT22;14000;52.056;8.510;2023-09-07T15:20:06;29.30;99.90
26278;DHT22;14000;52.056;8.510;2023-09-07T15:22:31;29.20;99.90
26278;DHT22;14000;52.056;8.510;2023-09-07T15:24:58;29.20;99.90
26278;DHT22;14000;52.056;8.510;2023-09-07T15:27:26;29.20;99.90